createdAt,value
2023-03-13T00:00:24.358Z,0
2023-03-13T00:01:25.562Z,0
2023-03-13T00:02:26.376Z,0
2023-03-13T00:03:26.130Z,0
2023-03-13T00:04:27.074Z,0
2023-03-13T00:05:28.829Z,0
2023-03-13T00:06:29.112Z,0
2023-03-13T00:07:29.629Z,0
2023-03-13T00:08:29.272Z,0
2023-03-13T00:09:30.472Z,0
2023-03-13T00:10:31.173Z,0
2023-03-13T00:11:32.099Z,0
2023-03-13T00:12:33.476Z,0
2023-03-13T00:13:33.976Z,0
2023-03-13T00:14:33.919Z,0
2023-03-13T00:15:34.103Z,0
2023-03-13T00:16:35.804Z,0
2023-03-13T00:17:35.513Z,0
2023-03-13T00:18:35.871Z,0
2023-03-13T00:19:37.063Z,0
2023-03-13T00:20:38.530Z,0
2023-03-13T00:21:38.238Z,0
2023-03-13T00:22:39.211Z,0
2023-03-13T00:23:39.748Z,0
2023-03-13T00:24:39.950Z,0
2023-03-13T00:25:40.145Z,0
2023-03-13T00:26:40.497Z,0
2023-03-13T00:27:41.439Z,0
2023-03-13T00:28:45.841Z,0
2023-03-13T00:29:43.091Z,0
2023-03-13T00:30:44.564Z,0
2023-03-13T00:31:44.636Z,0
2023-03-13T00:32:45.037Z,0
2023-03-13T00:33:45.371Z,0
2023-03-13T00:34:45.864Z,0
2023-03-13T00:35:47.188Z,0
2023-03-13T00:36:47.476Z,0
2023-03-13T00:37:48.406Z,0
2023-03-13T00:38:48.623Z,0
2023-03-13T00:39:48.598Z,0
2023-03-13T00:40:49.913Z,0
2023-03-13T00:41:51.126Z,0
2023-03-13T00:42:50.480Z,0
2023-03-13T00:43:52.412Z,0
2023-03-13T00:44:53.067Z,0
2023-03-13T00:45:53.739Z,0
2023-03-13T00:46:54.026Z,0
2023-03-13T00:47:54.961Z,0
2023-03-13T00:48:56.163Z,0
2023-03-13T00:49:56.370Z,0
2023-03-13T00:50:56.816Z,0
2023-03-13T00:51:57.040Z,0
2023-03-13T00:52:58.243Z,0
2023-03-13T00:53:59.332Z,0
2023-03-13T00:54:59.551Z,0
2023-03-13T00:56:00.772Z,0
2023-03-13T00:57:00.973Z,0
2023-03-13T00:58:02.182Z,0
2023-03-13T00:59:02.683Z,0
2023-03-13T01:00:02.913Z,0
2023-03-13T01:01:03.217Z,0
2023-03-13T01:02:04.282Z,0
2023-03-13T01:03:05.308Z,0
2023-03-13T01:04:04.927Z,0
2023-03-13T01:05:05.662Z,0
2023-03-13T01:06:07.328Z,0
2023-03-13T01:07:07.891Z,0
2023-03-13T01:08:08.379Z,0
2023-03-13T01:09:08.024Z,0
2023-03-13T01:10:08.960Z,0
2023-03-13T01:11:10.007Z,0
2023-03-13T01:12:10.951Z,0
2023-03-13T01:13:12.156Z,0
2023-03-13T01:14:12.753Z,0
2023-03-13T01:15:13.680Z,0
2023-03-13T01:16:13.801Z,0
2023-03-13T01:17:13.812Z,0
2023-03-13T01:18:13.471Z,0
2023-03-13T01:19:19.020Z,0
2023-03-13T01:20:15.515Z,0
2023-03-13T01:21:15.936Z,0
2023-03-13T01:22:16.448Z,0
2023-03-13T01:23:16.357Z,0
2023-03-13T01:24:17.583Z,0
2023-03-13T01:25:17.812Z,0
2023-03-13T01:26:18.029Z,0
2023-03-13T01:27:18.987Z,0
2023-03-13T01:28:19.479Z,0
2023-03-13T01:29:19.149Z,0
2023-03-13T01:30:20.361Z,0
2023-03-13T01:31:21.213Z,0
2023-03-13T01:32:21.766Z,0
2023-03-13T01:33:23.076Z,0
2023-03-13T01:34:23.311Z,0
2023-03-13T01:35:23.627Z,0
2023-03-13T01:36:24.479Z,0
2023-03-13T01:37:24.708Z,0
2023-03-13T01:38:24.917Z,0
2023-03-13T01:39:25.541Z,0
2023-03-13T01:40:26.449Z,0
2023-03-13T01:41:27.559Z,0
2023-03-13T01:42:27.504Z,0
2023-03-13T01:43:37.964Z,0
2023-03-13T01:44:28.891Z,0
2023-03-13T01:45:29.274Z,0
2023-03-13T01:46:31.436Z,0
2023-03-13T01:47:31.505Z,0
2023-03-13T01:48:31.707Z,0
2023-03-13T01:49:32.348Z,0
2023-03-13T01:50:33.556Z,0
2023-03-13T01:51:34.433Z,0
2023-03-13T01:52:34.374Z,0
2023-03-13T01:53:35.641Z,0
2023-03-13T01:54:36.559Z,0
2023-03-13T01:55:36.471Z,0
2023-03-13T01:56:36.672Z,0
2023-03-13T01:57:36.302Z,0
2023-03-13T01:58:37.674Z,0
2023-03-13T01:59:38.934Z,0
2023-03-13T02:00:40.191Z,0
2023-03-13T02:01:40.350Z,0
2023-03-13T02:02:40.787Z,0
2023-03-13T02:03:41.447Z,0
2023-03-13T02:04:41.660Z,0
2023-03-13T02:05:41.866Z,0
2023-03-13T02:06:42.900Z,0
2023-03-13T02:07:43.418Z,0
2023-03-13T02:08:43.910Z,0
2023-03-13T02:09:44.200Z,0
2023-03-13T02:10:44.130Z,0
2023-03-13T02:11:45.120Z,0
2023-03-13T02:12:45.322Z,0
2023-03-13T02:13:45.729Z,0
2023-03-13T02:14:46.655Z,0
2023-03-13T02:15:47.245Z,0
2023-03-13T02:16:47.548Z,0
2023-03-13T02:17:48.472Z,0
2023-03-13T02:18:48.686Z,0
2023-03-13T02:19:48.678Z,0
2023-03-13T02:20:49.614Z,0
2023-03-13T02:21:50.345Z,0
2023-03-13T02:22:50.869Z,0
2023-03-13T02:23:51.056Z,0
2023-03-13T02:24:51.967Z,0
2023-03-13T02:25:52.206Z,0
2023-03-13T02:26:52.494Z,0
2023-03-13T02:27:53.146Z,0
2023-03-13T02:28:53.773Z,0
2023-03-13T02:29:54.421Z,0
2023-03-13T02:30:54.804Z,0
2023-03-13T02:31:55.562Z,0
2023-03-13T02:32:56.077Z,0
2023-03-13T02:33:56.499Z,0
2023-03-13T02:34:56.132Z,0
2023-03-13T02:35:57.258Z,0
2023-03-13T02:36:57.944Z,0
2023-03-13T02:37:58.175Z,0
2023-03-13T02:38:58.424Z,0
2023-03-13T02:39:59.650Z,0
2023-03-13T02:40:59.287Z,0
2023-03-13T02:42:00.631Z,0
2023-03-13T02:43:00.567Z,0
2023-03-13T02:44:00.800Z,0
2023-03-13T02:45:01.720Z,0
2023-03-13T02:46:02.934Z,0
2023-03-13T02:47:03.419Z,0
2023-03-13T02:48:03.643Z,0
2023-03-13T02:49:03.857Z,0
2023-03-13T02:50:04.377Z,0
2023-03-13T02:51:04.866Z,0
2023-03-13T02:52:06.122Z,0
2023-03-13T02:53:06.631Z,0
2023-03-13T02:54:06.281Z,0
2023-03-13T02:55:07.495Z,0
2023-03-13T02:56:08.709Z,0
2023-03-13T02:57:08.680Z,0
2023-03-13T02:58:09.190Z,0
2023-03-13T02:59:09.445Z,0
2023-03-13T03:00:09.366Z,0
2023-03-13T03:01:10.911Z,0
2023-03-13T03:02:11.254Z,0
2023-03-13T03:03:11.884Z,0
2023-03-13T03:04:13.745Z,0
2023-03-13T03:05:13.544Z,0
2023-03-13T03:06:14.207Z,0
2023-03-13T03:07:15.851Z,0
2023-03-13T03:08:15.832Z,0
2023-03-13T03:09:16.490Z,0
2023-03-13T03:10:17.690Z,0
2023-03-13T03:11:18.192Z,0
2023-03-13T03:12:18.196Z,0
2023-03-13T03:13:19.117Z,0
2023-03-13T03:14:20.335Z,0
2023-03-13T03:15:19.961Z,0
2023-03-13T03:16:21.736Z,0
2023-03-13T03:17:21.993Z,0
2023-03-13T03:18:22.492Z,0
2023-03-13T03:19:22.428Z,0
2023-03-13T03:20:23.466Z,0
2023-03-13T03:21:23.377Z,0
2023-03-13T03:22:24.792Z,0
2023-03-13T03:23:25.323Z,0
2023-03-13T03:24:25.681Z,0
2023-03-13T03:25:26.053Z,0
2023-03-13T03:26:27.271Z,0
2023-03-13T03:27:28.233Z,0
2023-03-13T03:28:29.191Z,0
2023-03-13T03:29:29.112Z,0
2023-03-13T03:30:29.749Z,0
2023-03-13T03:31:30.678Z,0
2023-03-13T03:32:31.596Z,0
2023-03-13T03:33:31.892Z,0
2023-03-13T03:34:33.106Z,0
2023-03-13T03:35:33.342Z,0
2023-03-13T03:36:33.813Z,0
2023-03-13T03:37:35.411Z,0
2023-03-13T03:38:35.373Z,0
2023-03-13T03:39:36.855Z,0
2023-03-13T03:40:36.800Z,0
2023-03-13T03:41:37.730Z,0
2023-03-13T03:42:38.217Z,0
2023-03-13T03:43:38.858Z,0
2023-03-13T03:44:40.084Z,0
2023-03-13T03:45:41.021Z,0
2023-03-13T03:46:41.356Z,0
2023-03-13T03:47:42.173Z,0
2023-03-13T03:48:42.535Z,0
2023-03-13T03:49:43.170Z,0
2023-03-13T03:50:44.141Z,0
2023-03-13T03:51:44.400Z,0
2023-03-13T03:52:45.820Z,0
2023-03-13T03:53:45.800Z,0
2023-03-13T03:54:47.056Z,0
2023-03-13T03:55:47.128Z,0
2023-03-13T03:56:48.032Z,0
2023-03-13T03:57:48.240Z,0
2023-03-13T03:58:48.188Z,0
2023-03-13T03:59:49.676Z,0
2023-03-13T04:00:49.608Z,0
2023-03-13T04:01:49.834Z,0
2023-03-13T04:02:50.032Z,0
2023-03-13T04:03:51.729Z,0
2023-03-13T04:04:51.369Z,0
2023-03-13T04:05:52.300Z,0
2023-03-13T04:06:52.517Z,0
2023-03-13T04:07:53.818Z,0
2023-03-13T04:08:54.054Z,0
2023-03-13T04:09:54.674Z,0
2023-03-13T04:10:55.951Z,0
2023-03-13T04:11:56.187Z,0
2023-03-13T04:12:56.899Z,0
2023-03-13T04:13:58.104Z,0
2023-03-13T04:14:58.619Z,0
2023-03-13T04:15:58.621Z,0
2023-03-13T04:16:59.593Z,0
2023-03-13T04:17:59.643Z,0
2023-03-13T04:18:59.997Z,0
2023-03-13T04:20:00.612Z,0
2023-03-13T04:21:02.116Z,0
2023-03-13T04:22:02.337Z,0
2023-03-13T04:23:03.482Z,0
2023-03-13T04:24:03.987Z,0
2023-03-13T04:25:03.349Z,0
2023-03-13T04:26:04.548Z,0
2023-03-13T04:27:04.766Z,0
2023-03-13T04:28:05.131Z,0
2023-03-13T04:29:06.065Z,0
2023-03-13T04:30:07.018Z,0
2023-03-13T04:31:07.286Z,0
2023-03-13T04:32:07.685Z,0
2023-03-13T04:33:08.975Z,0
2023-03-13T04:34:09.184Z,0
2023-03-13T04:35:09.404Z,0
2023-03-13T04:36:09.981Z,0
2023-03-13T04:37:10.273Z,0
2023-03-13T04:38:10.658Z,0
2023-03-13T04:39:11.161Z,0
2023-03-13T04:40:11.368Z,0
2023-03-13T04:41:12.309Z,0
2023-03-13T04:42:13.216Z,0
2023-03-13T04:43:13.699Z,0
2023-03-13T04:44:14.628Z,0
2023-03-13T04:45:15.581Z,0
2023-03-13T04:46:16.252Z,0
2023-03-13T04:47:17.285Z,0
2023-03-13T04:48:18.494Z,0
2023-03-13T04:49:20.459Z,0
2023-03-13T04:50:19.361Z,0
2023-03-13T04:51:20.349Z,0
2023-03-13T04:52:20.700Z,0
2023-03-13T04:53:22.535Z,0
2023-03-13T04:54:22.775Z,0
2023-03-13T04:55:23.411Z,0
2023-03-13T04:56:43.001Z,0
2023-03-13T04:57:24.789Z,0
2023-03-13T04:58:24.468Z,0
2023-03-13T04:59:24.908Z,0
2023-03-13T05:00:26.128Z,0
2023-03-13T05:01:27.256Z,0
2023-03-13T05:02:27.367Z,0
2023-03-13T05:03:28.472Z,0
2023-03-13T05:04:29.385Z,0
2023-03-13T05:05:30.176Z,0
2023-03-13T05:06:31.460Z,0
2023-03-13T05:07:31.387Z,0
2023-03-13T05:08:32.404Z,0
2023-03-13T05:09:32.634Z,0
2023-03-13T05:10:33.263Z,0
2023-03-13T05:11:33.463Z,0
2023-03-13T05:12:34.702Z,0
2023-03-13T05:13:35.732Z,0
2023-03-13T05:14:36.373Z,0
2023-03-13T05:15:37.547Z,0
2023-03-13T05:16:38.309Z,0
2023-03-13T05:17:38.800Z,4
2023-03-13T05:18:38.711Z,4
2023-03-13T05:19:40.224Z,0
2023-03-13T05:20:40.715Z,4
2023-03-13T05:21:40.453Z,4
2023-03-13T05:22:41.388Z,4
2023-03-13T05:23:42.828Z,4
2023-03-13T05:24:45.107Z,4
2023-03-13T05:25:44.033Z,4
2023-03-13T05:26:44.255Z,4
2023-03-13T05:27:44.795Z,4
2023-03-13T05:28:45.057Z,4
2023-03-13T05:29:45.585Z,8
2023-03-13T05:30:46.346Z,8
2023-03-13T05:31:46.479Z,8
2023-03-13T05:32:46.917Z,8
2023-03-13T05:33:46.690Z,12
2023-03-13T05:34:47.690Z,12
2023-03-13T05:35:48.284Z,16
2023-03-13T05:36:48.760Z,16
2023-03-13T05:37:52.307Z,20
2023-03-13T05:38:49.898Z,20
2023-03-13T05:39:50.194Z,28
2023-03-13T05:40:50.837Z,28
2023-03-13T05:41:52.061Z,28
2023-03-13T05:42:51.988Z,36
2023-03-13T05:43:53.466Z,40
2023-03-13T05:44:53.403Z,40
2023-03-13T05:45:53.767Z,40
2023-03-13T05:46:55.208Z,40
2023-03-13T05:47:55.699Z,48
2023-03-13T05:48:56.204Z,48
2023-03-13T05:49:56.826Z,52
2023-03-13T05:50:57.193Z,56
2023-03-13T05:51:58.398Z,60
2023-03-13T05:52:59.636Z,64
2023-03-13T05:54:00.359Z,64
2023-03-13T05:55:00.313Z,64
2023-03-13T05:56:01.516Z,64
2023-03-13T05:57:01.432Z,64
2023-03-13T05:58:02.627Z,68
2023-03-13T05:59:02.271Z,64
2023-03-13T06:00:03.196Z,72
2023-03-13T06:01:03.119Z,76
2023-03-13T06:02:02.887Z,80
2023-03-13T06:03:04.101Z,92
2023-03-13T06:04:05.104Z,100
2023-03-13T06:05:06.197Z,100
2023-03-13T06:06:05.387Z,100
2023-03-13T06:07:06.329Z,108
2023-03-13T06:08:06.955Z,116
2023-03-13T06:09:08.546Z,120
2023-03-13T06:10:09.080Z,136
2023-03-13T06:11:09.752Z,148
2023-03-13T06:12:10.272Z,168
2023-03-13T06:13:25.744Z,204
2023-03-13T06:14:14.037Z,220
2023-03-13T06:15:17.849Z,224
2023-03-13T06:16:14.966Z,228
2023-03-13T06:17:15.246Z,240
2023-03-13T06:18:15.444Z,260
2023-03-13T06:19:16.365Z,284
2023-03-13T06:20:17.004Z,300
2023-03-13T06:21:18.510Z,288
2023-03-13T06:22:19.177Z,268
2023-03-13T06:23:19.830Z,252
2023-03-13T06:24:20.545Z,240
2023-03-13T06:25:20.492Z,248
2023-03-13T06:26:21.983Z,264
2023-03-13T06:27:22.186Z,280
2023-03-13T06:28:22.414Z,284
2023-03-13T06:29:22.637Z,276
2023-03-13T06:30:23.132Z,264
2023-03-13T06:31:23.968Z,244
2023-03-13T06:32:23.851Z,232
2023-03-13T06:33:25.000Z,216
2023-03-13T06:34:24.915Z,212
2023-03-13T06:35:25.890Z,216
2023-03-13T06:36:26.458Z,212
2023-03-13T06:37:26.205Z,212
2023-03-13T06:38:27.167Z,232
2023-03-13T06:39:27.501Z,256
2023-03-13T06:40:27.790Z,284
2023-03-13T06:41:27.998Z,288
2023-03-13T06:42:28.296Z,300
2023-03-13T06:43:29.240Z,320
2023-03-13T06:44:29.630Z,356
2023-03-13T06:45:30.125Z,396
2023-03-13T06:46:30.315Z,420
2023-03-13T06:47:30.375Z,412
2023-03-13T06:48:31.589Z,404
2023-03-13T06:49:32.235Z,400
2023-03-13T06:50:32.453Z,400
2023-03-13T06:51:33.373Z,408
2023-03-13T06:52:49.600Z,420
2023-03-13T06:53:34.923Z,424
2023-03-13T06:54:36.111Z,428
2023-03-13T06:55:36.381Z,436
2023-03-13T06:56:36.589Z,440
2023-03-13T06:57:37.229Z,452
2023-03-13T06:58:43.945Z,468
2023-03-13T06:59:39.187Z,484
2023-03-13T07:00:39.375Z,504
2023-03-13T07:01:39.536Z,520
2023-03-13T07:02:39.845Z,520
2023-03-13T07:03:40.263Z,520
2023-03-13T07:04:40.889Z,544
2023-03-13T07:05:41.541Z,588
2023-03-13T07:06:42.163Z,632
2023-03-13T07:07:43.268Z,648
2023-03-13T07:08:44.236Z,640
2023-03-13T07:09:45.287Z,636
2023-03-13T07:10:45.536Z,628
2023-03-13T07:11:46.485Z,616
2023-03-13T07:12:46.712Z,616
2023-03-13T07:13:47.350Z,652
2023-03-13T07:14:48.054Z,712
2023-03-13T07:15:47.969Z,760
2023-03-13T07:16:49.062Z,804
2023-03-13T07:17:49.916Z,816
2023-03-13T07:18:49.851Z,792
2023-03-13T07:19:49.824Z,724
2023-03-13T07:20:51.172Z,660
2023-03-13T07:21:51.442Z,612
2023-03-13T07:22:51.749Z,600
2023-03-13T07:23:52.670Z,628
2023-03-13T07:24:53.730Z,676
2023-03-13T07:25:52.981Z,724
2023-03-13T07:27:13.986Z,772
2023-03-13T07:27:54.620Z,756
2023-03-13T07:28:54.866Z,688
2023-03-13T07:29:55.101Z,648
2023-03-13T07:30:55.344Z,640
2023-03-13T07:31:56.208Z,632
2023-03-13T07:32:55.735Z,604
2023-03-13T07:33:56.014Z,580
2023-03-13T07:34:56.764Z,584
2023-03-13T07:35:57.699Z,620
2023-03-13T07:36:58.968Z,676
2023-03-13T07:37:59.631Z,720
2023-03-13T07:38:59.562Z,756
2023-03-13T07:40:00.954Z,776
2023-03-13T07:41:01.497Z,788
2023-03-13T07:42:01.993Z,808
2023-03-13T07:43:02.483Z,864
2023-03-13T07:44:02.676Z,936
2023-03-13T07:45:03.327Z,984
2023-03-13T07:46:04.427Z,996
2023-03-13T07:47:06.536Z,992
2023-03-13T07:48:05.449Z,916
2023-03-13T07:49:05.742Z,808
2023-03-13T07:50:06.768Z,772
2023-03-13T07:51:06.550Z,804
2023-03-13T07:52:07.112Z,856
2023-03-13T07:53:08.057Z,868
2023-03-13T07:54:08.332Z,856
2023-03-13T07:55:09.472Z,836
2023-03-13T07:56:10.091Z,860
2023-03-13T07:57:09.797Z,916
2023-03-13T07:58:11.359Z,1008
2023-03-13T07:59:12.353Z,1124
2023-03-13T08:00:13.442Z,1304
2023-03-13T08:01:12.706Z,1496
2023-03-13T08:02:12.875Z,1688
2023-03-13T08:03:14.160Z,1924
2023-03-13T08:04:14.527Z,2304
2023-03-13T08:05:14.964Z,2896
2023-03-13T08:06:15.471Z,2900
2023-03-13T08:07:16.011Z,2284
2023-03-13T08:08:17.664Z,1820
2023-03-13T08:09:17.934Z,1780
2023-03-13T08:10:18.904Z,1704
2023-03-13T08:11:19.112Z,1460
2023-03-13T08:12:19.209Z,1288
2023-03-13T08:13:19.434Z,1240
2023-03-13T08:14:20.009Z,1240
2023-03-13T08:15:20.314Z,1268
2023-03-13T08:16:20.623Z,1296
2023-03-13T08:17:20.347Z,1300
2023-03-13T08:18:21.563Z,1272
2023-03-13T08:19:22.229Z,1228
2023-03-13T08:20:23.221Z,1136
2023-03-13T08:21:24.668Z,1060
2023-03-13T08:22:24.986Z,976
2023-03-13T08:23:25.974Z,892
2023-03-13T08:24:26.485Z,816
2023-03-13T08:25:27.210Z,756
2023-03-13T08:26:27.584Z,660
2023-03-13T08:27:27.877Z,560
2023-03-13T08:28:29.089Z,500
2023-03-13T08:29:28.722Z,484
2023-03-13T08:30:29.936Z,488
2023-03-13T08:31:30.063Z,504
2023-03-13T08:32:31.284Z,512
2023-03-13T08:33:31.299Z,500
2023-03-13T08:34:32.258Z,468
2023-03-13T08:35:33.514Z,440
2023-03-13T08:36:34.178Z,424
2023-03-13T08:37:34.737Z,416
2023-03-13T08:38:34.754Z,424
2023-03-13T08:39:35.966Z,440
2023-03-13T08:40:36.509Z,472
2023-03-13T08:41:37.021Z,512
2023-03-13T08:42:37.224Z,548
2023-03-13T08:43:38.162Z,560
2023-03-13T08:44:39.447Z,560
2023-03-13T08:45:40.096Z,568
2023-03-13T08:46:41.197Z,608
2023-03-13T08:47:41.739Z,672
2023-03-13T08:48:41.970Z,752
2023-03-13T08:49:41.897Z,860
2023-03-13T08:50:42.394Z,996
2023-03-13T08:51:43.329Z,1076
2023-03-13T08:52:43.580Z,1092
2023-03-13T08:53:44.567Z,1064
2023-03-13T08:54:45.088Z,1020
2023-03-13T08:55:45.875Z,972
2023-03-13T08:56:46.511Z,924
2023-03-13T08:57:46.765Z,892
2023-03-13T08:58:46.431Z,884
2023-03-13T08:59:47.711Z,868
2023-03-13T09:00:47.889Z,824
2023-03-13T09:01:48.828Z,792
2023-03-13T09:02:49.313Z,804
2023-03-13T09:03:50.265Z,848
2023-03-13T09:04:50.320Z,900
2023-03-13T09:06:06.322Z,968
2023-03-13T09:06:51.398Z,1016
2023-03-13T09:07:52.332Z,1092
2023-03-13T09:08:52.624Z,1168
2023-03-13T09:09:52.612Z,1248
2023-03-13T09:10:53.964Z,1300
2023-03-13T09:11:54.301Z,1288
2023-03-13T09:12:54.803Z,1256
2023-03-13T09:13:55.732Z,1284
2023-03-13T09:14:56.237Z,1308
2023-03-13T09:15:56.553Z,1312
2023-03-13T09:16:57.149Z,1340
2023-03-13T09:17:57.772Z,1392
2023-03-13T09:18:57.691Z,1428
2023-03-13T09:20:10.827Z,1456
2023-03-13T09:21:00.194Z,1464
2023-03-13T09:21:59.433Z,1440
2023-03-13T09:23:00.113Z,1404
2023-03-13T09:24:01.379Z,1384
2023-03-13T09:25:01.656Z,1444
2023-03-13T09:26:02.550Z,1556
2023-03-13T09:27:12.346Z,1732
2023-03-13T09:28:03.877Z,1920
2023-03-13T09:29:03.814Z,2284
2023-03-13T09:30:04.174Z,2816
2023-03-13T09:31:05.607Z,4548
2023-03-13T09:32:06.069Z,4800
2023-03-13T09:33:06.930Z,4748
2023-03-13T09:34:07.588Z,4648
2023-03-13T09:35:07.237Z,4956
2023-03-13T09:36:08.455Z,5024
2023-03-13T09:37:09.515Z,6200
2023-03-13T09:38:10.751Z,6292
2023-03-13T09:39:10.738Z,5992
2023-03-13T09:40:12.061Z,6340
2023-03-13T09:41:17.877Z,6528
2023-03-13T09:42:13.594Z,6152
2023-03-13T09:43:13.298Z,5988
2023-03-13T09:44:14.541Z,6316
2023-03-13T09:45:14.785Z,6520
2023-03-13T09:46:15.841Z,6060
2023-03-13T09:47:16.144Z,4908
2023-03-13T09:48:16.714Z,4856
2023-03-13T09:50:18.091Z,5620
2023-03-13T09:51:18.856Z,4972
2023-03-13T09:52:19.085Z,4612
2023-03-13T09:53:20.027Z,4616
2023-03-13T09:54:20.977Z,3980
2023-03-13T09:55:21.220Z,3948
2023-03-13T09:56:22.120Z,3748
2023-03-13T09:57:22.140Z,4140
2023-03-13T09:58:23.187Z,4820
2023-03-13T09:59:23.420Z,6288
2023-03-13T10:00:24.681Z,5920
2023-03-13T10:01:25.059Z,5260
2023-03-13T10:02:25.386Z,5304
2023-03-13T10:03:25.806Z,6592
2023-03-13T10:04:27.673Z,8352
2023-03-13T10:05:28.028Z,7324
2023-03-13T10:06:28.682Z,9308
2023-03-13T10:07:28.969Z,10604
2023-03-13T10:08:29.635Z,10144
2023-03-13T10:09:30.276Z,9284
2023-03-13T10:10:31.521Z,8692
2023-03-13T10:11:32.857Z,8604
2023-03-13T10:12:33.384Z,9252
2023-03-13T10:13:33.362Z,8744
2023-03-13T10:14:33.881Z,10000
2023-03-13T10:15:34.123Z,9312
2023-03-13T10:16:34.976Z,10188
2023-03-13T10:17:35.130Z,8724
2023-03-13T10:18:36.375Z,8548
2023-03-13T10:19:37.053Z,9484
2023-03-13T10:20:37.280Z,9928
2023-03-13T10:21:38.237Z,9028
2023-03-13T10:22:39.477Z,7856
2023-03-13T10:23:39.617Z,7308
2023-03-13T10:24:39.882Z,7028
2023-03-13T10:25:40.502Z,8280
2023-03-13T10:26:41.473Z,6132
2023-03-13T10:27:41.447Z,7208
2023-03-13T10:28:42.511Z,6512
2023-03-13T10:29:43.579Z,6012
2023-03-13T10:30:44.149Z,4692
2023-03-13T10:31:44.868Z,4984
2023-03-13T10:32:44.910Z,4456
2023-03-13T10:33:45.535Z,4864
2023-03-13T10:34:45.494Z,5312
2023-03-13T10:35:45.937Z,5300
2023-03-13T10:36:46.297Z,5764
2023-03-13T10:37:46.212Z,5980
2023-03-13T10:38:47.269Z,5928
2023-03-13T10:39:48.259Z,7468
2023-03-13T10:40:48.895Z,6632
2023-03-13T10:41:49.547Z,7100
2023-03-13T10:42:49.792Z,8260
2023-03-13T10:43:50.712Z,8656
2023-03-13T10:44:51.432Z,10056
2023-03-13T10:45:52.090Z,11292
2023-03-13T10:46:53.082Z,10880
2023-03-13T10:47:53.670Z,9652
2023-03-13T10:48:53.964Z,10108
2023-03-13T10:49:53.930Z,10908
2023-03-13T10:50:54.903Z,11640
2023-03-13T10:51:56.218Z,11488
2023-03-13T10:52:56.155Z,11456
2023-03-13T10:53:56.824Z,11296
2023-03-13T10:54:58.063Z,11480
2023-03-13T10:55:58.312Z,10284
2023-03-13T10:56:59.828Z,12152
2023-03-13T10:58:00.379Z,12140
2023-03-13T10:59:00.336Z,12216
2023-03-13T11:00:03.157Z,11664
2023-03-13T11:01:01.227Z,12428
2023-03-13T11:02:01.455Z,10620
2023-03-13T11:03:02.063Z,11716
2023-03-13T11:04:02.904Z,11376
2023-03-13T11:05:03.413Z,9988
2023-03-13T11:06:03.693Z,8812
2023-03-13T11:07:04.128Z,7388
2023-03-13T11:08:05.431Z,9100
2023-03-13T11:09:05.717Z,7624
2023-03-13T11:10:06.262Z,7124
2023-03-13T11:11:06.534Z,7380
2023-03-13T11:12:07.359Z,6324
2023-03-13T11:13:07.436Z,7140
2023-03-13T11:14:08.709Z,8220
2023-03-13T11:15:09.508Z,9228
2023-03-13T11:16:09.822Z,10832
2023-03-13T11:17:10.716Z,9416
2023-03-13T11:18:11.446Z,11092
2023-03-13T11:19:11.212Z,11064
2023-03-13T11:20:11.855Z,11316
2023-03-13T11:21:28.755Z,12624
2023-03-13T11:22:13.032Z,11324
2023-03-13T11:23:13.357Z,11548
2023-03-13T11:24:14.307Z,11972
2023-03-13T11:25:17.671Z,11160
2023-03-13T11:26:15.464Z,10980
2023-03-13T11:27:17.908Z,9620
2023-03-13T11:28:18.226Z,9032
2023-03-13T11:29:18.507Z,9236
2023-03-13T11:30:19.465Z,10068
2023-03-13T11:31:20.677Z,10128
2023-03-13T11:32:20.515Z,9496
2023-03-13T11:33:21.511Z,9924
2023-03-13T11:34:22.456Z,7160
2023-03-13T11:35:22.373Z,5560
2023-03-13T11:36:23.511Z,6740
2023-03-13T11:37:24.307Z,8220
2023-03-13T11:38:24.854Z,6972
2023-03-13T11:39:25.116Z,7216
2023-03-13T11:40:25.810Z,5812
2023-03-13T11:41:26.979Z,5756
2023-03-13T11:42:27.431Z,6000
2023-03-13T11:43:36.571Z,6440
2023-03-13T11:44:28.356Z,6608
2023-03-13T11:45:42.548Z,5736
2023-03-13T11:46:30.959Z,5620
2023-03-13T11:47:31.136Z,5260
2023-03-13T11:48:31.243Z,5808
2023-03-13T11:49:31.473Z,5852
2023-03-13T11:50:32.789Z,5592
2023-03-13T11:51:33.570Z,6676
2023-03-13T11:52:33.691Z,6320
2023-03-13T11:53:34.642Z,5604
2023-03-13T11:54:34.945Z,5080
2023-03-13T11:55:34.623Z,5136
2023-03-13T11:56:35.887Z,5136
2023-03-13T11:57:37.143Z,5188
2023-03-13T11:58:37.708Z,6320
2023-03-13T11:59:37.744Z,4632
2023-03-13T12:00:39.017Z,5908
2023-03-13T12:01:40.349Z,7452
2023-03-13T12:02:41.311Z,6664
2023-03-13T12:03:42.439Z,6896
2023-03-13T12:04:42.814Z,5616
2023-03-13T12:05:43.749Z,4824
2023-03-13T12:06:44.869Z,6812
2023-03-13T12:07:44.609Z,6464
2023-03-13T12:08:44.863Z,6856
2023-03-13T12:09:45.389Z,6900
2023-03-13T12:10:45.911Z,6684
2023-03-13T12:11:46.409Z,6548
2023-03-13T12:12:47.341Z,5580
2023-03-13T12:13:47.097Z,6520
2023-03-13T12:14:48.060Z,5716
2023-03-13T12:15:48.299Z,4928
2023-03-13T12:16:49.537Z,5408
2023-03-13T12:17:49.938Z,5220
2023-03-13T12:18:50.819Z,5108
2023-03-13T12:19:50.499Z,6000
2023-03-13T12:20:51.749Z,5664
2023-03-13T12:21:52.255Z,7256
2023-03-13T12:22:52.871Z,5476
2023-03-13T12:23:53.452Z,6180
2023-03-13T12:24:54.005Z,6024
2023-03-13T12:25:54.920Z,6024
2023-03-13T12:26:55.267Z,5844
2023-03-13T12:27:56.742Z,4412
2023-03-13T12:28:57.329Z,5008
2023-03-13T12:29:57.249Z,5380
2023-03-13T12:30:58.221Z,5272
2023-03-13T12:31:59.199Z,5156
2023-03-13T12:32:59.422Z,4324
2023-03-13T12:33:58.985Z,3896
2023-03-13T12:35:00.269Z,3648
2023-03-13T12:36:01.370Z,3436
2023-03-13T12:37:01.525Z,3644
2023-03-13T12:38:02.021Z,4036
2023-03-13T12:39:03.768Z,4924
2023-03-13T12:40:03.719Z,4684
2023-03-13T12:41:05.110Z,4784
2023-03-13T12:42:05.655Z,5248
2023-03-13T12:43:06.272Z,5704
2023-03-13T12:44:19.507Z,6512
2023-03-13T12:45:07.493Z,6196
2023-03-13T12:46:08.366Z,6468
2023-03-13T12:47:08.694Z,6428
2023-03-13T12:48:08.692Z,7200
2023-03-13T12:49:09.566Z,7608
2023-03-13T12:50:10.237Z,6864
2023-03-13T12:51:11.173Z,6708
2023-03-13T12:52:11.842Z,7068
2023-03-13T12:53:13.397Z,7916
2023-03-13T12:54:14.502Z,8260
2023-03-13T12:55:14.576Z,7748
2023-03-13T12:56:15.855Z,9012
2023-03-13T12:57:16.849Z,8144
2023-03-13T12:58:17.959Z,7724
2023-03-13T12:59:18.496Z,8200
2023-03-13T13:00:18.819Z,8260
2023-03-13T13:01:18.974Z,8568
2023-03-13T13:02:19.366Z,8176
2023-03-13T13:03:19.595Z,8072
2023-03-13T13:04:21.014Z,8128
2023-03-13T13:05:21.666Z,8852
2023-03-13T13:06:21.916Z,8772
2023-03-13T13:07:22.577Z,8560
2023-03-13T13:08:23.398Z,8456
2023-03-13T13:09:24.646Z,8272
2023-03-13T13:10:25.246Z,8524
2023-03-13T13:11:28.273Z,8804
2023-03-13T13:12:25.931Z,9420
2023-03-13T13:13:26.285Z,9588
2023-03-13T13:14:26.708Z,9148
2023-03-13T13:15:26.962Z,8688
2023-03-13T13:16:27.593Z,8308
2023-03-13T13:17:27.861Z,8128
2023-03-13T13:18:27.401Z,8348
2023-03-13T13:19:28.926Z,7932
2023-03-13T13:20:28.887Z,7604
2023-03-13T13:21:29.821Z,7556
2023-03-13T13:22:31.229Z,7580
2023-03-13T13:23:31.599Z,7504
2023-03-13T13:24:31.319Z,7772
2023-03-13T13:25:32.824Z,7916
2023-03-13T13:26:32.784Z,7508
2023-03-13T13:27:32.897Z,7352
2023-03-13T13:28:33.804Z,7308
2023-03-13T13:29:34.092Z,7500
2023-03-13T13:30:34.448Z,7380
2023-03-13T13:31:35.463Z,7528
2023-03-13T13:32:36.515Z,7508
2023-03-13T13:33:37.025Z,7736
2023-03-13T13:34:37.625Z,7768
2023-03-13T13:35:38.334Z,7488
2023-03-13T13:36:37.779Z,7404
2023-03-13T13:37:39.119Z,7548
2023-03-13T13:38:39.189Z,7896
2023-03-13T13:39:40.068Z,8344
2023-03-13T13:40:40.399Z,7944
2023-03-13T13:41:41.623Z,6996
2023-03-13T13:42:41.675Z,7164
2023-03-13T13:43:43.055Z,7092
2023-03-13T13:44:43.333Z,7300
2023-03-13T13:45:43.272Z,7416
2023-03-13T13:46:44.286Z,7436
2023-03-13T13:47:45.122Z,6884
2023-03-13T13:48:45.085Z,6364
2023-03-13T13:49:46.685Z,6328
2023-03-13T13:50:46.103Z,6396
2023-03-13T13:51:47.634Z,6224
2023-03-13T13:52:48.137Z,5968
2023-03-13T13:53:50.666Z,5784
2023-03-13T13:54:49.027Z,6012
2023-03-13T13:55:49.574Z,6148
2023-03-13T13:56:50.080Z,6004
2023-03-13T13:57:50.182Z,5944
2023-03-13T13:58:50.871Z,5176
2023-03-13T13:59:51.425Z,5172
2023-03-13T14:00:51.707Z,4716
2023-03-13T14:01:52.597Z,4796
2023-03-13T14:02:52.919Z,4992
2023-03-13T14:03:53.900Z,4732
2023-03-13T14:04:54.131Z,4536
2023-03-13T14:05:54.750Z,4380
2023-03-13T14:06:54.971Z,4296